Time;durP1;ratioP1;P1;durP2;ratioP2;P2;SDS_P1;SDS_P2;PMS_P1;PMS_P2;Temp;Humidity;BMP_temperature;BMP_pressure;BME280_temperature;BME280_humidity;BME280_pressure;Samples;Min_cycle;Max_cycle;Signal;HPM_P1;HPM_P2
2022/05/07 00:01:20;;;;;;;16.63;14.27;;;12.70;1.00;;;;;;5026509;28;20495;-84
2022/05/07 00:03:50;;;;;;;24.00;17.80;;;12.60;1.00;;;;;;5034133;28;20486;-84
2022/05/07 00:06:31;;;;;;;19.50;17.40;;;12.60;1.00;;;;;;5036886;28;20421;-83
2022/05/07 00:09:01;;;;;;;21.33;18.03;;;12.60;1.00;;;;;;5037337;28;20426;-85
2022/05/07 00:11:30;;;;;;;23.57;19.60;;;12.60;1.00;;;;;;5034268;28;21707;-84
2022/05/07 00:14:13;;;;;;;19.80;17.73;;;12.60;1.00;;;;;;5032881;28;20458;-81
2022/05/07 00:22:38;;;;;;;21.90;19.43;;;12.50;1.00;;;;;;5045315;28;20434;-79
2022/05/07 00:25:12;;;;;;;19.73;17.67;;;12.50;1.00;;;;;;5018169;28;20774;-78
2022/05/07 00:27:50;;;;;;;19.67;17.40;;;12.50;1.00;;;;;;5019783;28;20476;-84
2022/05/07 00:30:22;;;;;;;21.13;17.97;;;12.50;1.00;;;;;;5038036;28;20598;-84
2022/05/07 00:32:52;;;;;;;21.47;19.17;;;12.40;1.00;;;;;;5036568;28;20477;-85
2022/05/07 00:35:22;;;;;;;20.53;18.33;;;12.40;1.00;;;;;;5036047;28;20443;-86
2022/05/07 00:37:57;;;;;;;22.70;18.77;;;12.30;1.00;;;;;;5035671;28;20604;-84
2022/05/07 00:43:12;;;;;;;21.17;16.90;;;12.20;1.00;;;;;;5039812;28;20453;-86
2022/05/07 00:45:40;;;;;;;19.40;17.40;;;12.20;1.00;;;;;;5058014;28;20468;-85
2022/05/07 00:48:11;;;;;;;21.47;17.00;;;12.20;1.00;;;;;;5062094;28;20452;-84
2022/05/07 00:53:30;;;;;;;20.13;16.40;;;12.20;1.00;;;;;;5063145;28;20507;-84
2022/05/07 00:56:01;;;;;;;18.53;16.63;;;12.20;1.00;;;;;;5064184;28;20476;-83
2022/05/07 00:58:33;;;;;;;18.80;16.90;;;12.30;1.00;;;;;;5061652;28;20481;-83
2022/05/07 01:01:03;;;;;;;22.03;17.40;;;12.40;1.00;;;;;;5063755;28;20417;-85
2022/05/07 01:03:30;;;;;;;19.17;17.00;;;12.50;1.00;;;;;;5060605;28;20470;-81
2022/05/07 01:06:09;;;;;;;19.53;17.40;;;12.50;1.00;;;;;;5062066;28;20481;-83
2022/05/07 01:08:50;;;;;;;20.53;17.33;;;12.60;1.00;;;;;;5060826;28;20530;-84
2022/05/07 01:14:13;;;;;;;20.07;17.10;;;12.60;1.00;;;;;;5056561;28;20476;-83
2022/05/07 01:16:53;;;;;;;22.50;18.33;;;12.60;1.00;;;;;;5057570;28;20410;-83
2022/05/07 01:19:23;;;;;;;21.33;19.20;;;12.70;1.00;;;;;;5063157;28;20423;-82
2022/05/07 01:21:51;;;;;;;22.17;18.60;;;12.70;1.00;;;;;;5065747;28;20434;-86
2022/05/07 01:24:20;;;;;;;20.90;17.47;;;12.70;1.00;;;;;;5060538;28;20424;-83
2022/05/07 01:27:01;;;;;;;21.47;16.70;;;12.70;1.00;;;;;;5063266;28;20421;-84
2022/05/07 01:29:31;;;;;;;20.77;18.57;;;12.70;1.00;;;;;;5059255;28;20413;-82
2022/05/07 01:32:02;;;;;;;20.63;18.37;;;12.70;1.00;;;;;;5061232;28;20543;-85
2022/05/07 01:34:33;;;;;;;22.93;18.87;;;12.70;1.00;;;;;;5063128;28;20639;-84
2022/05/07 01:37:09;;;;;;;18.57;16.13;;;12.70;1.00;;;;;;5063310;28;20425;-82
2022/05/07 01:39:40;;;;;;;17.50;15.40;;;12.60;1.00;;;;;;5060771;28;20431;-84
2022/05/07 01:42:10;;;;;;;18.23;15.10;;;12.60;1.00;;;;;;5059648;28;20537;-85
2022/05/07 01:44:40;;;;;;;17.60;14.27;;;12.60;1.00;;;;;;5058426;28;20449;-83
2022/05/07 01:50:00;;;;;;;19.93;15.60;;;12.80;1.00;;;;;;5054771;28;20431;-83
2022/05/07 01:52:30;;;;;;;18.43;15.27;;;12.80;1.00;;;;;;5062107;28;20489;-83
2022/05/07 01:55:01;;;;;;;17.77;15.60;;;12.80;1.00;;;;;;5072601;28;20415;-84
2022/05/07 01:57:31;;;;;;;15.50;13.83;;;12.90;1.00;;;;;;5068342;28;20460;-85
2022/05/07 02:00:20;;;;;;;17.70;14.53;;;12.90;1.00;;;;;;5066641;28;21158;-85
2022/05/07 02:03:00;;;;;;;16.07;13.70;;;12.90;1.00;;;;;;5067161;28;20454;-81
2022/05/07 02:05:31;;;;;;;15.37;13.77;;;12.90;1.00;;;;;;5059624;28;20460;-83
2022/05/07 02:08:23;;;;;;;19.50;14.30;;;12.90;1.00;;;;;;5071091;28;20414;-84
2022/05/07 02:10:51;;;;;;;16.30;14.40;;;12.90;1.00;;;;;;5064523;28;20450;-85
2022/05/07 02:13:21;;;;;;;14.83;12.80;;;13.00;1.00;;;;;;5065007;28;20434;-84
2022/05/07 02:16:09;;;;;;;17.00;14.47;;;12.90;1.00;;;;;;5063444;28;20425;-83
2022/05/07 02:18:40;;;;;;;16.83;13.30;;;12.90;1.00;;;;;;5060987;28;20418;-81
2022/05/07 02:21:13;;;;;;;14.10;12.43;;;12.90;1.00;;;;;;5062435;28;20410;-85
2022/05/07 02:23:42;;;;;;;20.43;14.33;;;13.00;1.00;;;;;;5064944;28;20477;-84
2022/05/07 02:26:10;;;;;;;14.70;13.03;;;13.00;1.00;;;;;;5067584;28;20421;-80
2022/05/07 02:28:41;;;;;;;14.43;11.87;;;13.00;1.00;;;;;;5064501;28;21306;-85
2022/05/07 02:31:11;;;;;;;14.50;12.90;;;13.00;1.00;;;;;;5064400;28;20608;-86
2022/05/07 02:33:40;;;;;;;13.40;11.77;;;13.10;1.00;;;;;;5064961;28;20639;-82
2022/05/07 02:36:13;;;;;;;15.93;13.50;;;13.10;1.00;;;;;;5063620;28;20445;-80
2022/05/07 02:38:49;;;;;;;13.70;11.70;;;13.10;1.00;;;;;;5067968;28;20473;-84
2022/05/07 02:44:20;;;;;;;13.13;10.30;;;13.10;1.00;;;;;;5065963;28;20411;-86
2022/05/07 02:46:52;;;;;;;13.30;9.80;;;13.10;1.00;;;;;;5062448;28;20434;-81
2022/05/07 02:49:21;;;;;;;14.47;10.07;;;13.10;1.00;;;;;;5065175;28;20414;-84
2022/05/07 02:57:09;;;;;;;13.23;8.90;;;13.30;1.00;;;;;;1066436;26;20713;-81
2022/05/07 02:59:42;;;;;;;11.80;9.43;;;13.30;1.00;;;;;;5020498;28;20421;-85
2022/05/07 03:02:11;;;;;;;12.00;8.43;;;13.40;1.00;;;;;;5026010;28;20439;-83
2022/05/07 03:04:52;;;;;;;10.60;8.67;;;13.50;1.00;;;;;;5029484;28;20421;-86
2022/05/07 03:08:00;;;;;;;10.37;8.20;;;13.50;1.00;;;;;;5030978;28;20432;-84
2022/05/07 03:10:31;;;;;;;10.60;9.03;;;13.50;1.00;;;;;;4944834;28;20428;-84
2022/05/07 03:13:43;;;;;;;10.50;8.53;;;13.50;1.00;;;;;;5027907;28;20509;-84
2022/05/07 03:16:29;;;;;;;13.10;9.03;;;13.50;1.00;;;;;;5026550;28;20442;-84
2022/05/07 03:19:03;;;;;;;15.73;9.53;;;13.40;1.00;;;;;;5031239;28;20408;-84
2022/05/07 03:21:31;;;;;;;10.53;8.50;;;13.40;1.00;;;;;;5023510;28;20421;-84
2022/05/07 03:24:00;;;;;;;11.40;8.10;;;13.40;1.00;;;;;;5025636;28;20423;-85
2022/05/07 03:26:34;;;;;;;11.60;8.93;;;13.40;1.00;;;;;;5023463;28;20436;-85
2022/05/07 03:29:10;;;;;;;11.80;8.30;;;13.40;1.00;;;;;;5023784;28;20590;-84
2022/05/07 03:31:52;;;;;;;11.00;9.00;;;13.40;1.00;;;;;;5024671;28;20411;-84
2022/05/07 03:34:22;;;;;;;11.70;9.10;;;13.30;1.00;;;;;;5020388;28;20401;-84
2022/05/07 03:37:03;;;;;;;13.73;9.30;;;13.20;1.00;;;;;;5020273;28;20420;-84
2022/05/07 03:39:32;;;;;;;13.13;9.40;;;13.30;1.00;;;;;;5028617;28;20399;-84
2022/05/07 03:42:10;;;;;;;11.70;8.60;;;13.30;1.00;;;;;;5119285;22;20431;-84
2022/05/07 03:44:40;;;;;;;10.80;8.53;;;13.30;1.00;;;;;;5066863;28;20401;-83
2022/05/07 03:47:13;;;;;;;14.00;8.40;;;13.30;1.00;;;;;;5065817;28;20425;-85
2022/05/07 03:49:43;;;;;;;12.67;8.90;;;13.40;1.00;;;;;;5066784;28;20419;-83
2022/05/07 03:57:41;;;;;;;16.43;8.70;;;13.30;1.00;;;;;;5060310;28;20422;-84
2022/05/07 04:00:12;;;;;;;10.33;8.07;;;13.20;1.00;;;;;;5062627;28;20408;-84
2022/05/07 04:03:02;;;;;;;15.50;11.27;;;13.10;1.00;;;;;;5064312;28;20406;-84
2022/05/07 04:05:33;;;;;;;11.23;7.83;;;13.10;1.00;;;;;;5065358;28;20459;-85
2022/05/07 04:08:10;;;;;;;13.70;8.80;;;13.00;1.00;;;;;;5071059;28;20428;-85
2022/05/07 04:10:42;;;;;;;12.87;7.80;;;12.90;1.00;;;;;;5061213;28;20411;-85
2022/05/07 04:13:11;;;;;;;10.63;7.53;;;12.80;1.00;;;;;;5064975;28;20448;-83
2022/05/07 04:15:44;;;;;;;10.80;8.00;;;12.80;1.00;;;;;;5063857;28;20411;-83
2022/05/07 04:18:13;;;;;;;10.90;8.07;;;12.80;1.00;;;;;;5064585;28;20433;-85
2022/05/07 04:20:43;;;;;;;9.80;7.73;;;12.80;1.00;;;;;;5065898;28;20426;-82
2022/05/07 04:23:11;;;;;;;10.80;7.93;;;12.90;1.00;;;;;;5057545;28;21398;-83
2022/05/07 04:25:42;;;;;;;10.63;7.07;;;12.90;1.00;;;;;;5066372;28;20414;-83
2022/05/07 04:28:11;;;;;;;9.90;7.87;;;12.90;1.00;;;;;;5065953;28;21040;-84
2022/05/07 04:30:41;;;;;;;9.97;7.87;;;12.90;1.00;;;;;;5065589;28;20430;-84
2022/05/07 04:33:33;;;;;;;14.27;8.70;;;12.90;1.00;;;;;;5069255;28;20518;-83
2022/05/07 04:36:03;;;;;;;9.17;6.90;;;13.00;1.00;;;;;;5070933;28;20398;-80
2022/05/07 04:38:50;;;;;;;10.27;6.70;;;13.10;1.00;;;;;;5063333;28;20426;-85
2022/05/07 04:41:23;;;;;;;9.93;7.30;;;13.20;1.00;;;;;;5068158;28;20645;-83
2022/05/07 04:43:53;;;;;;;9.43;7.80;;;13.20;1.00;;;;;;5064417;28;20417;-84
2022/05/07 04:46:30;;;;;;;10.30;7.03;;;13.20;1.00;;;;;;5069956;28;20439;-81
2022/05/07 04:49:05;;;;;;;11.70;6.70;;;13.40;1.00;;;;;;5064458;28;20424;-85
2022/05/07 04:51:42;;;;;;;12.33;7.70;;;13.40;1.00;;;;;;5072043;28;20449;-84
2022/05/07 04:54:22;;;;;;;10.63;7.70;;;13.40;1.00;;;;;;5065602;28;20432;-82
2022/05/07 04:59:53;;;;;;;9.33;7.50;;;13.50;1.00;;;;;;5055506;28;20595;-83
2022/05/07 05:02:21;;;;;;;12.60;7.20;;;13.50;1.00;;;;;;5055867;28;20411;-85
2022/05/07 05:05:14;;;;;;;10.50;7.80;;;13.60;1.00;;;;;;5063018;28;20430;-85
2022/05/07 05:07:43;;;;;;;9.40;6.97;;;13.70;1.00;;;;;;5062760;28;20616;-84
2022/05/07 05:10:11;;;;;;;10.00;7.20;;;13.80;1.00;;;;;;5065286;28;20423;-83
2022/05/07 05:12:41;;;;;;;12.90;8.27;;;13.70;1.00;;;;;;5157960;22;20426;-84
2022/05/07 05:15:33;;;;;;;9.50;6.93;;;13.80;1.00;;;;;;5062703;28;20428;-83
2022/05/07 05:18:13;;;;;;;9.50;7.23;;;13.90;1.00;;;;;;5063412;28;20415;-84
2022/05/07 05:23:31;;;;;;;9.53;7.50;;;14.20;1.00;;;;;;5065047;28;20455;-85
2022/05/07 05:26:01;;;;;;;10.07;6.50;;;14.30;1.00;;;;;;5055118;28;20425;-85
2022/05/07 05:28:32;;;;;;;12.10;8.00;;;14.40;1.00;;;;;;5057969;28;20416;-83
2022/05/07 05:31:01;;;;;;;11.50;7.43;;;14.50;1.00;;;;;;5051578;28;20431;-84
2022/05/07 05:33:31;;;;;;;11.47;7.73;;;14.60;1.00;;;;;;5051848;28;20415;-80
2022/05/07 05:36:03;;;;;;;9.30;7.30;;;14.70;1.00;;;;;;5053110;28;20419;-84
2022/05/07 05:38:31;;;;;;;10.80;8.00;;;14.80;1.00;;;;;;5058325;28;20427;-85
2022/05/07 05:41:04;;;;;;;10.67;7.07;;;14.90;1.00;;;;;;5053790;28;20458;-84
2022/05/07 05:43:32;;;;;;;9.93;7.10;;;15.10;1.00;;;;;;5055529;28;20639;-82
2022/05/07 05:46:04;;;;;;;10.10;7.40;;;15.30;1.00;;;;;;5056036;28;20456;-85
2022/05/07 05:48:31;;;;;;;12.67;7.87;;;15.40;1.00;;;;;;5056738;28;20448;-84
2022/05/07 05:51:12;;;;;;;10.60;7.10;;;15.50;1.00;;;;;;5060711;28;20436;-83
2022/05/07 05:53:42;;;;;;;11.87;8.17;;;15.60;1.00;;;;;;5059280;28;20642;-84
2022/05/07 05:56:12;;;;;;;12.40;7.30;;;15.80;1.00;;;;;;5056370;28;20409;-84
2022/05/07 05:58:42;;;;;;;11.40;7.23;;;15.90;1.00;;;;;;5058789;28;20423;-84
2022/05/07 06:01:12;;;;;;;13.10;8.67;;;16.10;1.00;;;;;;5059704;28;20444;-83
2022/05/07 06:04:10;;;;;;;9.70;5.73;;;16.30;1.00;;;;;;5062268;28;20550;-83
2022/05/07 06:06:54;;;;;;;9.70;5.40;;;16.30;1.00;;;;;;5055092;28;20435;-85
2022/05/07 06:09:24;;;;;;;9.33;6.23;;;16.50;1.00;;;;;;5044335;28;20393;-82
2022/05/07 06:11:52;;;;;;;10.10;5.53;;;16.50;1.00;;;;;;5060013;28;20485;-83
2022/05/07 06:14:30;;;;;;;10.03;5.80;;;16.60;1.00;;;;;;5058651;28;20408;-83
2022/05/07 06:17:20;;;;;;;10.00;5.47;;;16.60;1.00;;;;;;5059082;28;20435;-82
2022/05/07 06:19:53;;;;;;;13.53;6.97;;;16.60;1.00;;;;;;5056144;28;20476;-86
2022/05/07 06:22:23;;;;;;;12.30;6.57;;;16.60;1.00;;;;;;5060829;28;20458;-85
2022/05/07 06:27:42;;;;;;;11.40;6.27;;;16.70;1.00;;;;;;5058110;28;20583;-83
2022/05/07 06:30:12;;;;;;;10.13;5.40;;;16.80;1.00;;;;;;5059167;28;20459;-83
2022/05/07 06:32:42;;;;;;;11.47;7.00;;;17.00;1.00;;;;;;5059558;28;20444;-83
2022/05/07 06:35:12;;;;;;;9.33;5.43;;;17.20;1.00;;;;;;5058915;28;20687;-84
2022/05/07 06:38:14;;;;;;;8.77;5.50;;;17.40;1.00;;;;;;5062132;28;20491;-85
2022/05/07 06:40:44;;;;;;;10.97;6.40;;;17.60;1.00;;;;;;5050696;28;20468;-86
2022/05/07 06:43:14;;;;;;;10.33;5.93;;;17.70;1.00;;;;;;5056601;28;20440;-84
2022/05/07 06:45:41;;;;;;;8.80;5.43;;;17.80;1.00;;;;;;5057093;28;20425;-84
2022/05/07 06:48:14;;;;;;;16.23;5.80;;;17.90;1.00;;;;;;5062013;28;20428;-85
2022/05/07 06:50:52;;;;;;;10.63;6.13;;;18.10;1.00;;;;;;5057627;28;23415;-84
2022/05/07 06:53:43;;;;;;;9.33;5.30;;;18.30;1.00;;;;;;5059707;28;20523;-86
2022/05/07 06:56:33;;;;;;;10.33;6.13;;;18.50;1.00;;;;;;5047773;28;20405;-85
2022/05/07 07:02:02;;;;;;;8.50;4.53;;;19.00;1.00;;;;;;5054949;28;20462;-86
2022/05/07 07:04:53;;;;;;;10.50;4.70;;;19.30;1.00;;;;;;5038574;28;20472;-84
2022/05/07 07:07:43;;;;;;;7.10;4.00;;;19.40;1.00;;;;;;5051012;28;20468;-84
2022/05/07 07:10:24;;;;;;;11.03;4.43;;;19.60;1.00;;;;;;5059841;28;20472;-87
2022/05/07 07:13:04;;;;;;;12.40;5.70;;;19.80;1.00;;;;;;5062248;28;20441;-84
2022/05/07 07:15:50;;;;;;;8.23;4.80;;;19.80;1.00;;;;;;5063697;28;20474;-85
2022/05/07 07:18:50;;;;;;;8.93;5.07;;;20.00;1.00;;;;;;5054874;28;20429;-84
2022/05/07 07:21:32;;;;;;;9.90;4.67;;;20.30;1.00;;;;;;5055065;28;20433;-84
2022/05/07 07:24:23;;;;;;;9.17;4.47;;;20.70;1.00;;;;;;5058525;28;20483;-86
2022/05/07 07:33:13;;;;;;;7.30;4.00;;;20.60;1.00;;;;;;5057029;28;21058;-84
2022/05/07 07:35:42;;;;;;;7.87;3.70;;;20.60;1.00;;;;;;5060849;28;20459;-85
2022/05/07 07:38:14;;;;;;;7.40;4.33;;;20.60;1.00;;;;;;5061977;28;20409;-86
2022/05/07 07:40:43;;;;;;;7.77;3.57;;;20.60;1.00;;;;;;5060032;28;20405;-86
2022/05/07 07:43:21;;;;;;;7.30;3.20;;;20.80;1.00;;;;;;5056691;28;20448;-84
2022/05/07 07:48:52;;;;;;;10.20;4.00;;;20.90;1.00;;;;;;5062154;28;20468;-83
2022/05/07 07:51:24;;;;;;;8.00;3.50;;;21.00;1.00;;;;;;5057171;28;20412;-86
2022/05/07 07:53:53;;;;;;;7.30;3.80;;;21.30;1.00;;;;;;5055798;28;20411;-78
2022/05/07 07:56:21;;;;;;;7.33;3.43;;;21.50;1.00;;;;;;5054778;28;20433;-78
2022/05/07 07:58:53;;;;;;;8.43;3.30;;;21.70;1.00;;;;;;5048052;28;20445;-80
2022/05/07 08:01:22;;;;;;;7.70;3.70;;;21.90;1.00;;;;;;5055152;28;20405;-80
2022/05/07 08:03:52;;;;;;;9.30;3.70;;;22.00;1.00;;;;;;5050123;28;27376;-79
2022/05/07 08:06:22;;;;;;;9.53;3.87;;;22.10;1.00;;;;;;5055187;28;20659;-77
2022/05/07 08:11:42;;;;;;;8.03;4.13;;;22.20;1.00;;;;;;5049985;28;21066;-81
2022/05/07 08:14:14;;;;;;;8.73;4.13;;;22.20;1.00;;;;;;5039814;28;20409;-77
2022/05/07 08:16:44;;;;;;;9.10;5.40;;;22.10;1.00;;;;;;5062771;28;20427;-77
2022/05/07 08:19:13;;;;;;;9.60;4.70;;;22.00;1.00;;;;;;5061075;28;20504;-80
2022/05/07 08:21:42;;;;;;;11.03;4.87;;;21.90;1.00;;;;;;5058568;28;20421;-79
2022/05/07 08:24:11;;;;;;;8.77;4.53;;;21.90;1.00;;;;;;5058585;28;20487;-78
2022/05/07 08:26:42;;;;;;;9.60;4.90;;;22.10;1.00;;;;;;5057994;28;20412;-79
2022/05/07 08:32:11;;;;;;;9.30;4.20;;;22.40;1.00;;;;;;5055468;28;20990;-79
2022/05/07 08:34:41;;;;;;;8.77;4.10;;;22.60;1.00;;;;;;5056509;28;20456;-78
2022/05/07 08:37:17;;;;;;;9.70;5.10;;;22.70;1.00;;;;;;5056988;28;20459;-78
2022/05/07 08:39:51;;;;;;;10.57;4.50;;;22.90;1.00;;;;;;5057852;28;20507;-80
2022/05/07 08:42:31;;;;;;;9.40;5.33;;;22.90;1.00;;;;;;5057282;28;20404;-78
2022/05/07 08:45:03;;;;;;;13.33;5.40;;;23.00;1.00;;;;;;5056972;28;20439;-78
2022/05/07 08:47:42;;;;;;;11.30;5.30;;;22.90;1.00;;;;;;5055042;28;20424;-79
2022/05/07 08:50:19;;;;;;;10.80;4.53;;;22.80;1.00;;;;;;5058233;28;20439;-78
2022/05/07 08:52:52;;;;;;;9.50;4.80;;;22.90;1.00;;;;;;5058007;28;20428;-83
2022/05/07 08:55:23;;;;;;;9.73;5.17;;;23.00;1.00;;;;;;5055978;28;20524;-77
2022/05/07 08:57:53;;;;;;;10.10;4.43;;;23.10;1.00;;;;;;5061053;28;20475;-80
2022/05/07 09:00:33;;;;;;;15.07;5.70;;;23.40;1.00;;;;;;5061355;28;20495;-78
2022/05/07 09:03:04;;;;;;;9.20;5.30;;;24.00;1.00;;;;;;5055787;28;20539;-78
2022/05/07 09:05:41;;;;;;;11.80;6.20;;;24.30;1.00;;;;;;5061518;28;20448;-81
2022/05/07 09:08:13;;;;;;;10.70;5.23;;;24.60;1.00;;;;;;5058287;28;20393;-77
2022/05/07 09:10:42;;;;;;;9.47;4.70;;;24.80;1.00;;;;;;5057963;28;20442;-80
2022/05/07 09:13:13;;;;;;;9.50;5.00;;;24.90;1.00;;;;;;5051969;28;20435;-80
2022/05/07 09:15:56;;;;;;;9.10;4.50;;;25.10;1.00;;;;;;5054259;28;20447;-80
2022/05/07 09:18:25;;;;;;;10.47;5.10;;;25.30;1.00;;;;;;5056262;28;20506;-79
2022/05/07 09:24:07;;;;;;;7.80;4.60;;;25.40;1.00;;;;;;5059331;28;20451;-78
2022/05/07 09:26:44;;;;;;;9.40;5.03;;;25.20;1.00;;;;;;5056551;28;20497;-80
2022/05/07 09:29:13;;;;;;;11.60;5.13;;;24.90;1.00;;;;;;5058311;28;20522;-80
2022/05/07 09:31:51;;;;;;;8.33;4.80;;;24.80;1.00;;;;;;5059403;28;22307;-82
2022/05/07 09:37:24;;;;;;;9.23;5.37;;;25.20;1.00;;;;;;5057315;28;20460;-82
2022/05/07 09:39:54;;;;;;;7.37;4.30;;;25.90;1.00;;;;;;5062987;28;20396;-81
2022/05/07 09:42:24;;;;;;;9.17;5.30;;;27.10;1.00;;;;;;5060591;28;20421;-79
2022/05/07 09:44:52;;;;;;;8.60;4.60;;;28.60;1.00;;;;;;5061425;28;20432;-78
2022/05/07 09:47:54;;;;;;;7.93;4.70;;;29.60;1.00;;;;;;5064995;28;20421;-81
2022/05/07 09:50:24;;;;;;;7.07;4.20;;;30.50;1.00;;;;;;5062503;28;20426;-80
2022/05/07 09:58:32;;;;;;;8.20;5.00;;;33.10;1.00;;;;;;5063442;28;20471;-81
2022/05/07 10:01:22;;;;;;;8.37;4.43;;;33.20;1.00;;;;;;5061815;28;20420;-82
2022/05/07 10:04:06;;;;;;;8.93;4.67;;;31.90;1.00;;;;;;5057263;28;20445;-80
2022/05/07 10:06:58;;;;;;;8.33;4.60;;;29.60;1.00;;;;;;5064382;28;20444;-78
2022/05/07 10:09:43;;;;;;;9.07;5.00;;;27.80;1.00;;;;;;5061791;28;20460;-81
2022/05/07 10:12:23;;;;;;;8.20;5.10;;;26.60;1.00;;;;;;5062604;28;20405;-83
2022/05/07 10:14:52;;;;;;;10.23;5.10;;;25.90;1.00;;;;;;5057995;28;20510;-78
2022/05/07 10:17:22;;;;;;;9.17;4.50;;;26.30;1.00;;;;;;5062193;28;20491;-80
2022/05/07 10:20:14;;;;;;;9.90;5.50;;;28.30;1.00;;;;;;5058820;28;20441;-80
2022/05/07 10:22:42;;;;;;;8.83;4.90;;;30.40;1.00;;;;;;5049386;28;20461;-81
2022/05/07 10:25:13;;;;;;;8.17;4.60;;;32.10;1.00;;;;;;5058795;28;20424;-79
2022/05/07 10:27:47;;;;;;;8.20;4.30;;;32.70;1.00;;;;;;5058367;28;20429;-80
2022/05/07 10:30:25;;;;;;;7.70;4.77;;;31.30;1.00;;;;;;5061577;28;20432;-80
2022/05/07 10:33:12;;;;;;;8.10;3.90;;;31.50;1.00;;;;;;5057330;28;20423;-82
2022/05/07 10:35:45;;;;;;;9.40;4.37;;;32.70;1.00;;;;;;5063731;28;20499;-80
2022/05/07 10:38:14;;;;;;;6.80;3.40;;;33.90;1.00;;;;;;5063502;28;20420;-80
2022/05/07 10:40:54;;;;;;;7.90;3.47;;;34.80;1.00;;;;;;5061893;28;20432;-82
2022/05/07 10:43:33;;;;;;;7.57;4.00;;;35.30;1.00;;;;;;5057571;28;20428;-81
2022/05/07 10:46:05;;;;;;;11.60;4.10;;;35.90;1.00;;;;;;5060186;28;20476;-83
2022/05/07 10:48:50;;;;;;;10.27;4.20;;;35.70;1.00;;;;;;5061488;28;20445;-80
2022/05/07 10:51:33;;;;;;;7.83;3.97;;;35.90;1.00;;;;;;5058580;28;20449;-79
2022/05/07 10:54:21;;;;;;;7.70;4.67;;;35.00;1.00;;;;;;5053834;28;20439;-79
2022/05/07 10:56:54;;;;;;;7.63;3.80;;;33.30;1.00;;;;;;5059284;28;20437;-78
2022/05/07 10:59:24;;;;;;;11.97;5.70;;;33.00;1.00;;;;;;5060690;28;20606;-78
2022/05/07 11:01:53;;;;;;;9.73;4.73;;;33.80;1.00;;;;;;5062825;28;20413;-78
2022/05/07 11:04:24;;;;;;;7.80;4.33;;;33.80;1.00;;;;;;5065366;28;20559;-80
2022/05/07 11:07:03;;;;;;;11.30;3.90;;;33.50;1.00;;;;;;5062001;28;20428;-80
2022/05/07 11:09:32;;;;;;;7.80;3.37;;;33.80;1.00;;;;;;5061485;28;20408;-82
2022/05/07 11:12:03;;;;;;;6.70;3.30;;;34.80;1.00;;;;;;5059973;28;20437;-78
2022/05/07 11:14:35;;;;;;;9.70;4.30;;;34.80;1.00;;;;;;5062260;28;20580;-82
2022/05/07 11:17:04;;;;;;;8.93;3.73;;;34.00;1.00;;;;;;5064193;28;20487;-80
2022/05/07 11:19:34;;;;;;;7.50;4.90;;;34.30;1.00;;;;;;5063781;28;20409;-81
2022/05/07 11:22:10;;;;;;;9.43;4.10;;;35.30;1.00;;;;;;5066182;28;20444;-81
2022/05/07 11:24:42;;;;;;;9.40;5.10;;;34.30;1.00;;;;;;5061814;28;20508;-81
2022/05/07 11:27:12;;;;;;;10.83;5.67;;;33.30;1.00;;;;;;5065264;28;20471;-80
2022/05/07 11:29:42;;;;;;;8.60;5.37;;;32.10;1.00;;;;;;5061089;28;20425;-81
2022/05/07 11:32:12;;;;;;;8.53;5.90;;;30.60;1.00;;;;;;5063882;28;20405;-78
2022/05/07 11:34:44;;;;;;;10.73;5.27;;;29.40;1.00;;;;;;5062138;28;20431;-77
2022/05/07 11:37:43;;;;;;;10.77;5.60;;;30.00;1.00;;;;;;5063088;28;20436;-79
2022/05/07 11:40:13;;;;;;;9.57;5.50;;;31.70;1.00;;;;;;5062640;28;20456;-78
2022/05/07 11:42:46;;;;;;;7.60;4.97;;;32.80;1.00;;;;;;5064132;28;20444;-83
2022/05/07 11:45:31;;;;;;;13.00;5.73;;;33.90;1.00;;;;;;5061518;28;20499;-80
2022/05/07 11:48:13;;;;;;;8.10;4.87;;;34.30;1.00;;;;;;5064545;28;20464;-81
2022/05/07 11:51:02;;;;;;;7.07;4.10;;;34.60;1.00;;;;;;5063279;28;20475;-80
2022/05/07 11:53:43;;;;;;;9.73;4.40;;;33.10;1.00;;;;;;5063236;28;20424;-80
2022/05/07 11:56:12;;;;;;;9.50;5.17;;;31.20;1.00;;;;;;5059489;28;20491;-82
2022/05/07 11:58:52;;;;;;;9.70;5.63;;;29.70;1.00;;;;;;5060757;28;20455;-80
2022/05/07 12:01:26;;;;;;;11.23;5.67;;;28.70;1.00;;;;;;5061208;28;21827;-80
2022/05/07 12:03:54;;;;;;;8.43;5.00;;;27.70;1.00;;;;;;5065722;28;20428;-77
2022/05/07 12:06:25;;;;;;;10.07;5.77;;;26.80;1.00;;;;;;5052175;28;20412;-80
2022/05/07 12:08:55;;;;;;;9.97;5.70;;;27.50;1.00;;;;;;5063383;28;20574;-79
2022/05/07 12:11:23;;;;;;;7.87;4.60;;;29.30;1.00;;;;;;5047687;28;20429;-81
2022/05/07 12:13:54;;;;;;;9.60;5.00;;;31.60;1.00;;;;;;5065236;28;20457;-79
2022/05/07 12:19:12;;;;;;;9.90;4.77;;;35.40;1.00;;;;;;5058853;28;20465;-83
2022/05/07 12:30:13;;;;;;;8.47;4.93;;;37.90;1.00;;;;;;5058616;28;20436;-77
2022/05/07 12:32:54;;;;;;;7.90;4.77;;;37.30;1.00;;;;;;5062112;28;20429;-80
2022/05/07 12:35:22;;;;;;;8.60;5.33;;;35.60;1.00;;;;;;5060592;28;20487;-79
2022/05/07 12:37:59;;;;;;;7.27;4.30;;;33.90;1.00;;;;;;5058079;28;20421;-83
2022/05/07 12:40:32;;;;;;;13.30;4.73;;;33.20;1.00;;;;;;5062081;28;21268;-82
2022/05/07 12:43:03;;;;;;;8.03;4.00;;;33.90;1.00;;;;;;5059003;28;20536;-80
2022/05/07 12:45:35;;;;;;;12.23;4.13;;;33.50;1.00;;;;;;5055791;28;20476;-79
2022/05/07 12:48:06;;;;;;;7.60;3.67;;;33.40;1.00;;;;;;5056871;28;20473;-81
2022/05/07 12:50:34;;;;;;;6.40;3.50;;;34.20;1.00;;;;;;5034438;28;20472;-78
2022/05/07 12:53:02;;;;;;;7.70;4.80;;;35.00;1.00;;;;;;5055304;28;20444;-81
2022/05/07 12:55:34;;;;;;;8.33;5.13;;;35.10;1.00;;;;;;5057197;28;20436;-78
2022/05/07 12:58:04;;;;;;;9.43;5.10;;;33.40;1.00;;;;;;5062316;28;20729;-80
2022/05/07 13:00:32;;;;;;;10.60;4.90;;;33.00;1.00;;;;;;5057489;28;20495;-84
2022/05/07 13:03:02;;;;;;;7.27;3.80;;;33.10;1.00;;;;;;5061471;28;20429;-82
2022/05/07 13:05:34;;;;;;;8.00;5.10;;;34.50;1.00;;;;;;5064421;28;20429;-83
2022/05/07 13:08:14;;;;;;;7.73;4.40;;;35.80;1.00;;;;;;5064943;28;20421;-82
2022/05/07 13:10:44;;;;;;;8.87;4.40;;;36.30;1.00;;;;;;5066202;28;20432;-83
2022/05/07 13:13:13;;;;;;;10.23;4.07;;;36.60;1.00;;;;;;5063346;28;20451;-81
2022/05/07 13:15:43;;;;;;;7.10;4.20;;;36.50;1.00;;;;;;5067112;28;20432;-83
2022/05/07 13:18:13;;;;;;;8.23;4.80;;;36.00;1.00;;;;;;5068061;28;20432;-82
2022/05/07 13:20:42;;;;;;;7.80;3.80;;;36.20;1.00;;;;;;5065480;28;20443;-81
2022/05/07 13:23:13;;;;;;;8.83;4.43;;;36.30;1.00;;;;;;5060163;28;20564;-80
2022/05/07 13:25:44;;;;;;;8.17;4.20;;;36.20;1.00;;;;;;5065486;28;20592;-79
2022/05/07 13:28:15;;;;;;;7.57;3.80;;;37.10;1.00;;;;;;5066048;28;20472;-80
2022/05/07 13:30:44;;;;;;;7.93;4.17;;;38.00;1.00;;;;;;5066110;28;20432;-81
2022/05/07 13:33:12;;;;;;;9.10;4.83;;;37.70;1.00;;;;;;5069044;28;20413;-82
2022/05/07 13:35:43;;;;;;;7.70;4.47;;;36.80;1.00;;;;;;5069102;28;20460;-80
2022/05/07 13:38:15;;;;;;;7.60;4.60;;;35.70;1.00;;;;;;5063784;28;20437;-81
2022/05/07 13:40:45;;;;;;;9.07;4.37;;;34.10;1.00;;;;;;5064370;28;20443;-82
2022/05/07 13:43:13;;;;;;;8.93;4.07;;;32.70;1.00;;;;;;5062172;28;20492;-80
2022/05/07 13:45:43;;;;;;;12.50;5.13;;;32.30;1.00;;;;;;5065872;28;20532;-80
2022/05/07 13:48:13;;;;;;;9.87;3.90;;;32.30;1.00;;;;;;5065885;28;20431;-86
2022/05/07 13:50:43;;;;;;;9.43;4.33;;;33.40;1.00;;;;;;5064633;28;20490;-80
2022/05/07 13:53:13;;;;;;;10.33;4.93;;;33.50;1.00;;;;;;5062091;28;20404;-81
2022/05/07 13:55:51;;;;;;;6.80;4.10;;;32.40;1.00;;;;;;5063481;28;20555;-80
2022/05/07 13:58:25;;;;;;;7.30;4.60;;;31.00;1.00;;;;;;5059914;28;20419;-83
2022/05/07 14:00:53;;;;;;;7.80;4.03;;;30.10;1.00;;;;;;5062639;28;20439;-81
2022/05/07 14:03:23;;;;;;;12.90;4.60;;;29.70;1.00;;;;;;5059284;28;20416;-80
2022/05/07 14:05:53;;;;;;;8.60;5.20;;;31.00;1.00;;;;;;5064216;28;20421;-79
2022/05/07 14:08:22;;;;;;;10.70;6.03;;;31.60;1.00;;;;;;5063590;28;20488;-80
2022/05/07 14:10:54;;;;;;;8.73;4.30;;;31.00;1.00;;;;;;5059270;28;20471;-82
2022/05/07 14:13:23;;;;;;;10.70;7.07;;;31.00;1.00;;;;;;5063709;28;20456;-80
2022/05/07 14:15:53;;;;;;;7.03;3.73;;;32.10;1.00;;;;;;5061597;28;20488;-83
2022/05/07 14:18:22;;;;;;;8.23;4.70;;;32.50;1.00;;;;;;5063739;28;20409;-81
2022/05/07 14:20:53;;;;;;;9.20;4.40;;;32.80;1.00;;;;;;5066692;28;20428;-79
2022/05/07 14:23:23;;;;;;;8.43;4.20;;;32.40;1.00;;;;;;5061005;28;20404;-78
2022/05/07 14:26:12;;;;;;;8.80;5.03;;;31.80;1.00;;;;;;5061747;28;20430;-78
2022/05/07 14:28:44;;;;;;;8.50;3.70;;;32.10;1.00;;;;;;5060082;28;21446;-80
2022/05/07 14:31:13;;;;;;;7.10;3.63;;;32.80;1.00;;;;;;5066895;28;20487;-85
2022/05/07 14:33:44;;;;;;;8.57;4.23;;;33.60;1.00;;;;;;5064588;28;20472;-81
2022/05/07 14:36:13;;;;;;;8.33;4.60;;;33.80;1.00;;;;;;5065040;28;20508;-79
2022/05/07 14:38:43;;;;;;;8.40;5.07;;;33.50;1.00;;;;;;5062368;28;20432;-81
2022/05/07 14:41:14;;;;;;;8.60;4.80;;;32.40;1.00;;;;;;5056322;28;21756;-79
2022/05/07 14:43:43;;;;;;;8.80;4.70;;;31.70;1.00;;;;;;5062397;28;20491;-81
2022/05/07 14:46:15;;;;;;;10.30;4.37;;;30.80;1.00;;;;;;5063337;28;20417;-78